Time;durP1;ratioP1;P1;durP2;ratioP2;P2;SDS_P1;SDS_P2;PMS_P1;PMS_P2;Temp;Humidity;BMP_temperature;BMP_pressure;BME280_temperature;BME280_humidity;BME280_pressure;Samples;Min_cycle;Max_cycle;Signal;HPM_P1;HPM_P2
2021/12/27 00:01:05;;;;;;;4.70;3.10;;;-10.50;90.60;;;;;;4994666;28;20468;-86
2021/12/27 00:03:31;;;;;;;6.25;3.28;;;-10.60;90.30;;;;;;4995049;28;20022;-84
2021/12/27 00:05:56;;;;;;;3.83;2.92;;;-10.60;90.30;;;;;;4994959;28;20586;-85
2021/12/27 00:08:23;;;;;;;6.20;2.85;;;-10.60;90.30;;;;;;4994882;28;20018;-84
2021/12/27 00:10:50;;;;;;;4.00;2.50;;;-10.70;90.20;;;;;;4994189;28;20030;-84
2021/12/27 00:13:15;;;;;;;1.38;1.33;;;-10.70;90.30;;;;;;4994534;28;20022;-85
2021/12/27 00:15:43;;;;;;;4.00;2.67;;;-10.70;90.40;;;;;;4989845;28;20057;-85
2021/12/27 00:18:09;;;;;;;5.35;3.28;;;-10.70;90.60;;;;;;4994551;28;20028;-86
2021/12/27 00:20:35;;;;;;;4.88;3.92;;;-10.80;90.70;;;;;;5000285;28;20507;-86
2021/12/27 00:23:01;;;;;;;3.08;2.03;;;-10.80;90.90;;;;;;4987764;28;20022;-85
2021/12/27 00:25:29;;;;;;;5.28;2.95;;;-10.80;91.10;;;;;;4990392;28;20603;-84
2021/12/27 00:27:55;;;;;;;;;;;-10.80;91.10;;;;;;4982193;28;20034;-84
2021/12/27 00:30:22;;;;;;;4.78;3.20;;;-10.80;91.00;;;;;;4998361;28;19915;-85
2021/12/27 00:32:49;;;;;;;2.95;2.30;;;-10.80;91.00;;;;;;5004261;28;20042;-86
2021/12/27 00:35:15;;;;;;;4.88;3.42;;;-10.80;90.90;;;;;;4994995;28;20402;-86
2021/12/27 00:37:42;;;;;;;4.57;2.92;;;-10.80;90.80;;;;;;4995582;28;20113;-85
2021/12/27 00:40:10;;;;;;;3.33;2.40;;;-10.80;91.10;;;;;;4994865;28;20395;-86
2021/12/27 00:42:36;;;;;;;13.38;3.83;;;-10.80;90.80;;;;;;4990061;28;20086;-85
2021/12/27 00:45:02;;;;;;;3.55;2.33;;;-10.80;90.90;;;;;;4987105;28;20551;-84
2021/12/27 00:47:27;;;;;;;4.45;3.38;;;-10.90;90.90;;;;;;5012175;28;20022;-84
2021/12/27 00:49:53;;;;;;;5.38;2.92;;;-10.90;90.90;;;;;;5000896;28;20033;-85
2021/12/27 00:52:19;;;;;;;4.18;2.53;;;-10.90;90.90;;;;;;4995849;28;20015;-89
2021/12/27 00:54:45;;;;;;;5.35;3.28;;;-10.80;90.90;;;;;;4996140;28;20034;-86
2021/12/27 00:57:11;;;;;;;5.45;3.55;;;-10.80;91.10;;;;;;4994383;28;20050;-88
2021/12/27 00:59:36;;;;;;;4.03;3.03;;;-10.80;91.10;;;;;;4994704;28;20379;-87
2021/12/27 01:02:02;;;;;;;6.03;3.50;;;-10.80;91.00;;;;;;4994111;28;20030;-86
2021/12/27 01:04:28;;;;;;;5.72;4.25;;;-10.80;91.00;;;;;;4994208;28;20446;-85
2021/12/27 01:06:54;;;;;;;8.00;3.65;;;-10.80;91.00;;;;;;4994592;28;20476;-85
2021/12/27 01:09:36;;;;;;;2.65;2.13;;;-10.80;91.00;;;;;;4993541;28;20026;-85
2021/12/27 01:14:55;;;;;;;4.50;3.40;;;-10.80;91.20;;;;;;4993200;28;20034;-84
2021/12/27 01:17:21;;;;;;;6.68;3.42;;;-10.80;91.30;;;;;;4993863;28;20058;-85
2021/12/27 01:19:47;;;;;;;4.80;3.33;;;-10.80;91.30;;;;;;5002215;28;20042;-84
2021/12/27 01:22:13;;;;;;;2.95;1.95;;;-10.80;91.30;;;;;;5002665;28;20026;-85
2021/12/27 01:24:39;;;;;;;8.43;4.40;;;-10.70;91.40;;;;;;4998628;28;20412;-85
2021/12/27 01:27:04;;;;;;;3.88;2.80;;;-10.70;91.60;;;;;;4997190;28;20044;-83
2021/12/27 01:29:30;;;;;;;4.28;3.10;;;-10.70;91.80;;;;;;4993525;28;20049;-83
2021/12/27 01:31:56;;;;;;;5.18;3.40;;;-10.60;91.90;;;;;;4989403;28;20034;-84
2021/12/27 01:34:25;;;;;;;5.05;3.20;;;-10.60;91.80;;;;;;4975596;28;20449;-84
2021/12/27 01:36:51;;;;;;;3.88;2.35;;;-10.60;91.80;;;;;;4973868;28;20045;-85
2021/12/27 01:39:17;;;;;;;4.72;3.00;;;-10.60;91.90;;;;;;4989143;28;20080;-85
2021/12/27 01:41:43;;;;;;;2.42;2.13;;;-10.60;91.80;;;;;;4978970;28;20018;-85
2021/12/27 01:44:10;;;;;;;5.38;3.65;;;-10.50;91.80;;;;;;4995634;28;20022;-86
2021/12/27 01:46:37;;;;;;;6.30;3.38;;;-10.50;91.90;;;;;;4998933;28;20022;-85
2021/12/27 01:49:02;;;;;;;4.90;2.47;;;-10.50;92.00;;;;;;4994186;28;20027;-85
2021/12/27 01:51:30;;;;;;;7.45;5.10;;;-10.50;91.90;;;;;;4993441;28;20030;-85
2021/12/27 01:53:57;;;;;;;4.60;3.30;;;-10.50;92.00;;;;;;4992399;28;20077;-86
2021/12/27 01:56:24;;;;;;;9.43;3.10;;;-10.50;92.00;;;;;;4992142;28;20038;-86
2021/12/27 01:58:52;;;;;;;7.90;3.63;;;-10.50;92.00;;;;;;4977047;28;20103;-82
2021/12/27 02:01:19;;;;;;;3.60;2.90;;;-10.50;91.90;;;;;;4974803;28;20058;-85
2021/12/27 02:03:45;;;;;;;;;;;-10.50;92.00;;;;;;4976684;28;20032;-82
2021/12/27 02:06:13;;;;;;;4.77;2.67;;;-10.50;92.00;;;;;;4978063;28;20383;-83
2021/12/27 02:08:41;;;;;;;4.95;2.33;;;-10.50;92.10;;;;;;4978213;28;20022;-83
2021/12/27 02:11:09;;;;;;;5.97;3.40;;;-10.50;92.20;;;;;;4997245;28;20046;-84
2021/12/27 02:13:41;;;;;;;5.32;3.50;;;-10.40;92.20;;;;;;4997502;28;20031;-86
2021/12/27 02:16:07;;;;;;;6.30;3.97;;;-10.50;92.10;;;;;;4978624;28;20043;-86
2021/12/27 02:18:35;;;;;;;3.55;2.97;;;-10.50;92.00;;;;;;4995043;28;20034;-87
2021/12/27 02:21:02;;;;;;;4.40;2.25;;;-10.50;92.00;;;;;;4981298;28;20030;-86
2021/12/27 02:23:28;;;;;;;6.63;3.33;;;-10.50;92.20;;;;;;4987626;28;20030;-86
2021/12/27 02:25:54;;;;;;;6.78;3.53;;;-10.40;92.20;;;;;;4979196;28;20035;-87
2021/12/27 02:28:20;;;;;;;2.85;2.13;;;-10.40;92.20;;;;;;4976273;28;20465;-85
2021/12/27 02:30:50;;;;;;;4.90;3.17;;;-10.40;92.20;;;;;;4992898;28;20033;-86
2021/12/27 02:33:16;;;;;;;4.95;2.47;;;-10.40;92.30;;;;;;4996572;28;20025;-86
2021/12/27 02:35:46;;;;;;;4.63;2.20;;;-10.40;92.30;;;;;;4999144;28;20081;-86
2021/12/27 02:38:17;;;;;;;5.55;3.05;;;-10.30;92.30;;;;;;5009724;28;20030;-86
2021/12/27 02:40:44;;;;;;;5.63;3.53;;;-10.30;92.40;;;;;;5015846;28;20006;-83
2021/12/27 02:43:12;;;;;;;;;;;-10.30;92.30;;;;;;5001026;28;20057;-87
2021/12/27 02:45:43;;;;;;;3.85;2.95;;;-10.20;92.40;;;;;;5001194;28;20306;-86
2021/12/27 02:48:13;;;;;;;7.47;3.45;;;-10.20;92.20;;;;;;4999299;28;20027;-86
2021/12/27 02:50:40;;;;;;;6.22;3.45;;;-10.20;92.30;;;;;;4998449;28;20034;-85
2021/12/27 02:53:08;;;;;;;4.03;3.17;;;-10.10;92.40;;;;;;4998072;28;20494;-86
2021/12/27 02:55:34;;;;;;;5.97;3.53;;;-10.10;92.40;;;;;;4998030;28;20483;-88
2021/12/27 02:58:00;;;;;;;3.72;2.17;;;-10.00;92.40;;;;;;4984830;28;20115;-85
2021/12/27 03:00:33;;;;;;;7.10;4.22;;;-10.00;92.40;;;;;;4977059;28;20066;-90
2021/12/27 03:02:59;;;;;;;6.85;3.67;;;-10.00;92.40;;;;;;4977512;28;20166;-87
2021/12/27 03:05:28;;;;;;;3.38;1.83;;;-9.90;92.40;;;;;;4978656;28;20066;-87
2021/12/27 03:07:55;;;;;;;6.15;3.55;;;-9.90;92.40;;;;;;4980036;28;20023;-88
2021/12/27 03:10:30;;;;;;;8.57;3.80;;;-9.90;92.40;;;;;;4980945;28;20031;-86
2021/12/27 03:12:58;;;;;;;6.28;3.85;;;-9.90;92.30;;;;;;4981119;28;20054;-87
2021/12/27 03:15:24;;;;;;;5.15;2.85;;;-9.90;92.00;;;;;;4986733;28;20042;-87
2021/12/27 03:17:53;;;;;;;11.13;5.38;;;-9.90;91.80;;;;;;4982627;28;20023;-85
2021/12/27 03:20:21;;;;;;;4.97;3.38;;;-9.90;92.10;;;;;;4993455;28;20023;-86
2021/12/27 03:22:50;;;;;;;2.75;2.22;;;-10.00;92.20;;;;;;4977325;28;20031;-89
2021/12/27 03:25:19;;;;;;;4.85;3.42;;;-9.90;92.30;;;;;;4978888;28;20023;-87
2021/12/27 03:27:46;;;;;;;6.25;3.60;;;-9.90;92.40;;;;;;4979374;28;20022;-87
2021/12/27 03:30:13;;;;;;;;;;;-9.90;92.50;;;;;;4994765;28;20058;-88
2021/12/27 03:32:40;;;;;;;4.60;3.55;;;-9.90;92.40;;;;;;4982229;28;19946;-86
2021/12/27 03:35:12;;;;;;;8.67;4.60;;;-9.90;92.20;;;;;;4995285;28;20071;-88
2021/12/27 03:37:42;;;;;;;6.60;3.75;;;-9.90;92.20;;;;;;5012255;28;20055;-85
2021/12/27 03:40:10;;;;;;;5.93;3.45;;;-9.90;92.60;;;;;;5012216;28;20026;-87
2021/12/27 03:42:37;;;;;;;7.28;4.65;;;-9.80;92.40;;;;;;5004591;28;20034;-87
2021/12/27 03:45:04;;;;;;;6.25;4.95;;;-9.80;92.00;;;;;;4996536;28;20096;-88
2021/12/27 03:47:29;;;;;;;5.10;4.38;;;-9.80;91.80;;;;;;4998603;28;20061;-88
2021/12/27 03:49:56;;;;;;;5.78;3.35;;;-9.80;91.80;;;;;;5000598;28;20023;-89
2021/12/27 03:52:22;;;;;;;4.65;2.85;;;-9.80;91.90;;;;;;5002510;28;20543;-86
2021/12/27 03:54:48;;;;;;;6.80;4.00;;;-9.80;92.00;;;;;;5004135;28;20050;-88
2021/12/27 03:57:15;;;;;;;8.95;3.88;;;-9.80;91.90;;;;;;5013076;28;20026;-87
2021/12/27 04:02:14;;;;;;;8.05;4.90;;;-9.80;91.80;;;;;;4999543;28;19997;-87
2021/12/27 04:04:41;;;;;;;6.68;3.95;;;-9.80;91.70;;;;;;4999401;28;20078;-86
2021/12/27 04:07:09;;;;;;;7.10;3.80;;;-9.80;91.70;;;;;;4998077;28;20026;-88
2021/12/27 04:09:37;;;;;;;5.53;3.42;;;-9.80;91.70;;;;;;4997288;28;20058;-87
2021/12/27 04:12:04;;;;;;;6.53;4.57;;;-9.80;91.70;;;;;;4997833;28;20376;-87
2021/12/27 04:14:30;;;;;;;7.22;3.80;;;-9.80;91.60;;;;;;4998096;28;20113;-87
2021/12/27 04:16:56;;;;;;;5.68;3.92;;;-9.80;91.50;;;;;;5000035;28;20030;-88
2021/12/27 04:19:22;;;;;;;6.32;3.80;;;-9.80;91.50;;;;;;5000637;28;20034;-88
2021/12/27 04:21:48;;;;;;;9.90;3.92;;;-9.80;91.50;;;;;;5008053;28;20038;-89
2021/12/27 04:24:14;;;;;;;7.93;4.55;;;-9.80;91.60;;;;;;5017449;28;20026;-81
2021/12/27 04:26:40;;;;;;;5.07;3.63;;;-9.70;91.50;;;;;;5018782;28;20017;-89
2021/12/27 04:29:07;;;;;;;6.00;3.40;;;-9.80;91.40;;;;;;5015676;28;20085;-88
2021/12/27 04:31:33;;;;;;;8.60;4.82;;;-9.80;91.40;;;;;;5004202;28;20053;-89
2021/12/27 04:33:58;;;;;;;5.55;3.55;;;-9.80;91.50;;;;;;4995751;28;20023;-89
2021/12/27 04:36:24;;;;;;;7.45;4.47;;;-9.80;91.60;;;;;;4980870;28;20034;-87
2021/12/27 04:38:50;;;;;;;5.35;2.97;;;-9.80;91.60;;;;;;4977183;28;20051;-88
2021/12/27 04:41:21;;;;;;;7.38;3.78;;;-9.80;91.60;;;;;;4976555;28;20031;-88
2021/12/27 04:43:47;;;;;;;4.78;3.45;;;-9.80;91.60;;;;;;4997113;28;20031;-89
2021/12/27 04:46:13;;;;;;;6.85;3.60;;;-9.70;91.40;;;;;;4995026;28;20462;-88
2021/12/27 04:48:39;;;;;;;5.90;4.95;;;-9.80;91.30;;;;;;4997013;28;20072;-88
2021/12/27 04:51:04;;;;;;;7.28;3.90;;;-9.80;91.00;;;;;;4996398;28;20099;-88
2021/12/27 04:53:31;;;;;;;9.07;5.07;;;-9.80;90.90;;;;;;4996954;28;20627;-87
2021/12/27 04:55:56;;;;;;;8.25;5.15;;;-9.80;90.90;;;;;;4998776;28;20487;-88
2021/12/27 04:58:23;;;;;;;6.88;4.70;;;-9.80;90.70;;;;;;4999921;28;20030;-88
2021/12/27 05:00:49;;;;;;;11.43;4.53;;;-9.90;90.90;;;;;;4998514;28;20022;-86
2021/12/27 05:03:15;;;;;;;6.32;3.25;;;-9.90;91.40;;;;;;4996803;28;20117;-88
2021/12/27 05:05:44;;;;;;;6.07;3.47;;;-9.90;91.20;;;;;;4996574;28;20062;-86
2021/12/27 05:08:10;;;;;;;8.10;4.63;;;-9.90;91.40;;;;;;4995925;28;20033;-87
2021/12/27 05:10:36;;;;;;;6.80;3.20;;;-9.90;91.50;;;;;;4994755;28;20125;-86
2021/12/27 05:13:02;;;;;;;9.40;5.25;;;-9.90;91.40;;;;;;4996602;28;20034;-88
2021/12/27 05:15:28;;;;;;;6.63;4.00;;;-9.80;91.50;;;;;;4997890;28;20066;-89
2021/12/27 05:17:54;;;;;;;9.88;4.63;;;-9.80;91.50;;;;;;4995685;28;20025;-90
2021/12/27 05:20:20;;;;;;;6.20;3.85;;;-9.80;91.40;;;;;;4998357;28;20511;-89
2021/12/27 05:22:46;;;;;;;9.02;4.20;;;-9.80;91.20;;;;;;4998836;28;20025;-87
2021/12/27 05:25:14;;;;;;;4.93;3.45;;;-9.90;91.10;;;;;;5007622;28;20479;-89
2021/12/27 05:27:40;;;;;;;5.68;4.07;;;-9.90;91.20;;;;;;5006721;28;20002;-88
2021/12/27 05:30:07;;;;;;;6.22;3.92;;;-9.90;91.30;;;;;;5008807;28;20006;-87
2021/12/27 05:32:35;;;;;;;10.73;4.68;;;-9.90;91.40;;;;;;5003869;28;20039;-88
2021/12/27 05:35:02;;;;;;;7.88;4.53;;;-9.90;91.40;;;;;;4995822;28;20031;-86
2021/12/27 05:37:28;;;;;;;8.00;4.47;;;-9.90;91.20;;;;;;4979893;28;20062;-88
2021/12/27 05:39:54;;;;;;;5.28;3.90;;;-9.90;91.20;;;;;;4975685;28;20396;-88
2021/12/27 05:42:20;;;;;;;4.03;2.90;;;-9.90;91.20;;;;;;4984477;28;20023;-87
2021/12/27 05:44:47;;;;;;;3.70;3.35;;;-9.90;91.30;;;;;;5006020;28;20041;-89
2021/12/27 05:47:15;;;;;;;;;;;-9.90;91.30;;;;;;5000488;28;20026;-91
2021/12/27 05:49:40;;;;;;;4.60;2.78;;;-9.90;91.40;;;;;;5000230;28;19953;-89
2021/12/27 05:52:08;;;;;;;5.53;3.83;;;-10.00;91.40;;;;;;4997150;28;20391;-90
2021/12/27 05:54:33;;;;;;;;;;;-10.00;91.80;;;;;;4996536;28;20062;-88
2021/12/27 05:56:59;;;;;;;4.80;3.37;;;-10.00;91.60;;;;;;4996896;28;19913;-86
2021/12/27 05:59:25;;;;;;;8.15;5.60;;;-10.10;91.40;;;;;;4996234;28;20022;-87
2021/12/27 06:01:51;;;;;;;4.18;3.33;;;-10.10;91.50;;;;;;4997194;28;20035;-90
2021/12/27 06:04:17;;;;;;;9.13;4.68;;;-10.10;91.60;;;;;;5010100;28;20038;-93
2021/12/27 06:06:48;;;;;;;8.07;4.60;;;-10.10;91.80;;;;;;4999563;28;20043;-87
2021/12/27 06:09:13;;;;;;;4.18;3.33;;;-10.10;91.90;;;;;;4993537;28;20116;-88
2021/12/27 06:11:39;;;;;;;7.55;4.90;;;-10.00;91.80;;;;;;4980109;28;20023;-85
2021/12/27 06:14:05;;;;;;;7.25;4.75;;;-10.00;91.90;;;;;;4977572;28;20026;-85
2021/12/27 06:16:31;;;;;;;10.60;4.45;;;-10.00;91.90;;;;;;4977046;28;20041;-83
2021/12/27 06:18:57;;;;;;;7.07;5.57;;;-9.90;91.80;;;;;;4986128;28;20034;-83
2021/12/27 06:21:23;;;;;;;6.30;3.55;;;-9.90;91.80;;;;;;4994933;28;20030;-83
2021/12/27 06:23:49;;;;;;;9.93;5.50;;;-9.90;91.50;;;;;;5001112;28;20345;-85
2021/12/27 06:26:15;;;;;;;9.00;4.13;;;-10.00;91.50;;;;;;4999381;28;20022;-85
2021/12/27 06:28:41;;;;;;;7.82;3.50;;;-9.90;91.60;;;;;;4997061;28;20106;-83
2021/12/27 06:31:07;;;;;;;12.07;4.95;;;-10.00;91.50;;;;;;5002161;28;20025;-82
2021/12/27 06:33:33;;;;;;;9.00;4.07;;;-10.00;91.40;;;;;;5002877;28;20030;-85
2021/12/27 06:35:59;;;;;;;9.13;3.83;;;-10.00;91.50;;;;;;5006413;28;20038;-83
2021/12/27 06:38:25;;;;;;;8.00;4.90;;;-9.90;91.60;;;;;;5000950;28;20126;-84
2021/12/27 06:40:51;;;;;;;7.85;4.53;;;-9.90;91.50;;;;;;4997372;28;20060;-85
2021/12/27 06:43:18;;;;;;;12.82;6.22;;;-9.90;91.50;;;;;;4997283;28;20031;-84
2021/12/27 06:45:44;;;;;;;5.70;3.23;;;-9.90;91.60;;;;;;4998287;28;20109;-84
2021/12/27 06:48:10;;;;;;;6.97;4.53;;;-9.90;91.50;;;;;;5000560;28;20264;-85
2021/12/27 06:50:36;;;;;;;3.33;2.92;;;-9.90;91.50;;;;;;5002642;28;20030;-86
2021/12/27 06:53:03;;;;;;;8.02;4.47;;;-9.90;91.30;;;;;;4995905;28;20502;-85
2021/12/27 06:55:29;;;;;;;5.17;3.80;;;-9.90;91.30;;;;;;4994510;28;20045;-87
2021/12/27 06:57:55;;;;;;;3.72;3.40;;;-10.00;91.00;;;;;;4996851;28;20335;-86
2021/12/27 07:00:20;;;;;;;6.78;4.75;;;-10.00;91.20;;;;;;4995742;28;20514;-85
2021/12/27 07:02:46;;;;;;;6.47;4.78;;;-10.00;91.30;;;;;;4997892;28;20439;-84
2021/12/27 07:05:12;;;;;;;7.28;5.20;;;-10.00;91.50;;;;;;4997175;28;20435;-85
2021/12/27 07:07:39;;;;;;;9.35;5.15;;;-9.90;91.70;;;;;;4996585;28;20145;-84
2021/12/27 07:10:07;;;;;;;7.03;4.82;;;-9.90;91.80;;;;;;4997792;28;20018;-86
2021/12/27 07:12:33;;;;;;;9.68;5.32;;;-9.80;91.80;;;;;;4999038;28;20113;-85
2021/12/27 07:14:59;;;;;;;8.27;4.15;;;-9.80;91.80;;;;;;4997385;28;20030;-84
2021/12/27 07:17:26;;;;;;;10.27;5.32;;;-9.70;91.70;;;;;;4997444;28;20033;-84
2021/12/27 07:19:52;;;;;;;7.63;4.13;;;-9.70;91.70;;;;;;4996196;28;20399;-86
2021/12/27 07:22:18;;;;;;;6.03;4.18;;;-9.70;91.90;;;;;;5008650;28;20054;-85
2021/12/27 07:24:44;;;;;;;6.88;4.90;;;-9.70;91.50;;;;;;5012459;28;20023;-86
2021/12/27 07:27:10;;;;;;;8.35;3.65;;;-9.80;91.50;;;;;;5013046;28;20049;-84
2021/12/27 07:29:36;;;;;;;3.78;3.08;;;-9.80;91.70;;;;;;4996755;28;20126;-85
2021/12/27 07:32:02;;;;;;;10.18;5.35;;;-9.70;91.80;;;;;;4996379;28;20022;-84
2021/12/27 07:34:28;;;;;;;7.63;4.20;;;-9.70;91.70;;;;;;4996279;28;20038;-84
2021/12/27 07:36:55;;;;;;;4.50;4.07;;;-9.70;91.50;;;;;;5010876;28;20403;-86
2021/12/27 07:39:23;;;;;;;9.20;4.95;;;-9.70;91.50;;;;;;4997919;28;20019;-87
2021/12/27 07:41:49;;;;;;;7.07;4.57;;;-9.70;91.80;;;;;;5008829;28;20026;-86
2021/12/27 07:44:16;;;;;;;8.82;5.65;;;-9.70;91.80;;;;;;5011486;28;20432;-85
2021/12/27 07:46:45;;;;;;;6.03;3.30;;;-9.60;91.80;;;;;;4996401;28;20037;-85
2021/12/27 07:49:13;;;;;;;6.18;2.80;;;-9.60;91.60;;;;;;4996621;28;20484;-83
2021/12/27 07:51:39;;;;;;;5.38;4.07;;;-9.70;91.50;;;;;;5011081;28;20026;-86
2021/12/27 07:54:05;;;;;;;7.63;3.97;;;-9.70;91.50;;;;;;4995751;28;20029;-85
2021/12/27 07:56:32;;;;;;;6.72;4.13;;;-9.70;91.50;;;;;;4994943;28;20368;-87
2021/12/27 07:59:03;;;;;;;3.88;3.28;;;-9.70;91.20;;;;;;4995753;28;20395;-85
2021/12/27 08:01:34;;;;;;;9.10;4.45;;;-9.80;91.10;;;;;;4995341;28;20022;-85
2021/12/27 08:04:00;;;;;;;10.00;4.15;;;-9.90;91.30;;;;;;4995374;28;20046;-84
2021/12/27 08:06:26;;;;;;;7.82;3.53;;;-9.90;91.40;;;;;;4995364;28;20026;-86
2021/12/27 08:08:52;;;;;;;6.22;3.63;;;-9.90;91.50;;;;;;4995679;28;20109;-85
2021/12/27 08:11:18;;;;;;;6.90;4.18;;;-9.80;91.60;;;;;;4996584;28;20022;-85
2021/12/27 08:13:44;;;;;;;4.88;3.85;;;-9.80;91.90;;;;;;4995532;28;20117;-84
2021/12/27 08:16:10;;;;;;;6.50;3.72;;;-9.80;91.70;;;;;;4993657;28;20042;-86
2021/12/27 08:18:36;;;;;;;6.47;4.70;;;-9.80;91.40;;;;;;4995364;28;20019;-88
2021/12/27 08:21:02;;;;;;;4.75;4.20;;;-9.80;91.50;;;;;;4995326;28;20022;-86
2021/12/27 08:23:28;;;;;;;6.15;4.60;;;-9.80;91.60;;;;;;5002988;28;20018;-85
2021/12/27 08:25:54;;;;;;;5.80;3.72;;;-9.70;91.80;;;;;;5002286;28;20120;-85
2021/12/27 08:28:20;;;;;;;11.57;5.53;;;-9.60;92.00;;;;;;4995016;28;20491;-86
2021/12/27 08:30:46;;;;;;;7.20;4.20;;;-9.60;91.70;;;;;;4995620;28;20480;-85
2021/12/27 08:33:12;;;;;;;4.80;3.58;;;-9.50;91.80;;;;;;4996788;28;20050;-85
2021/12/27 08:35:40;;;;;;;8.90;5.30;;;-9.50;91.90;;;;;;4996876;28;20113;-85
2021/12/27 08:38:06;;;;;;;11.13;4.82;;;-9.50;91.90;;;;;;4994648;28;20153;-86
2021/12/27 08:40:32;;;;;;;6.90;4.35;;;-9.40;91.90;;;;;;4995846;28;20093;-86
2021/12/27 08:42:58;;;;;;;11.52;6.38;;;-9.40;91.80;;;;;;4996716;28;20018;-85
2021/12/27 08:45:24;;;;;;;7.38;4.60;;;-9.30;91.80;;;;;;5003446;28;20022;-84
2021/12/27 08:47:50;;;;;;;5.55;3.75;;;-9.30;91.60;;;;;;5006309;28;20026;-85
2021/12/27 08:50:17;;;;;;;8.15;4.82;;;-9.20;91.70;;;;;;5006680;28;20030;-84
2021/12/27 08:52:44;;;;;;;11.25;5.15;;;-9.10;91.60;;;;;;5005232;28;20054;-83
2021/12/27 08:55:11;;;;;;;7.18;5.05;;;-9.10;91.90;;;;;;5007274;28;20034;-85
2021/12/27 08:57:39;;;;;;;9.63;5.85;;;-9.10;91.70;;;;;;5001778;28;20064;-85
2021/12/27 09:00:08;;;;;;;;;;;-9.00;91.80;;;;;;4995838;28;20026;-85
2021/12/27 09:02:33;;;;;;;7.80;5.05;;;-8.90;91.60;;;;;;4997634;28;19913;-87
2021/12/27 09:05:00;;;;;;;7.93;5.60;;;-8.90;91.40;;;;;;4995508;28;20395;-86
2021/12/27 09:07:25;;;;;;;15.73;7.57;;;-8.80;91.30;;;;;;4996281;28;20543;-88
2021/12/27 09:09:51;;;;;;;9.68;5.95;;;-8.60;91.40;;;;;;4995596;28;20061;-86
2021/12/27 09:12:17;;;;;;;10.50;5.32;;;-8.50;91.40;;;;;;4994483;28;20038;-86
2021/12/27 09:14:43;;;;;;;12.32;7.00;;;-8.30;91.40;;;;;;4995610;28;20050;-84
2021/12/27 09:17:09;;;;;;;10.75;6.15;;;-8.10;91.50;;;;;;4994382;28;20105;-85
2021/12/27 09:19:35;;;;;;;9.07;4.78;;;-7.90;91.20;;;;;;4995910;28;20029;-86
2021/12/27 09:22:01;;;;;;;8.30;6.00;;;-7.80;90.60;;;;;;4995987;28;20018;-87
2021/12/27 09:24:28;;;;;;;10.30;6.03;;;-7.70;90.20;;;;;;4996173;28;20061;-85
2021/12/27 09:26:54;;;;;;;8.88;5.85;;;-7.50;90.40;;;;;;5003999;28;20030;-86
2021/12/27 09:29:20;;;;;;;8.68;5.75;;;-7.50;89.50;;;;;;5007342;28;20022;-85
2021/12/27 09:31:46;;;;;;;9.20;5.95;;;-7.40;89.00;;;;;;5008709;28;20026;-87
2021/12/27 09:34:12;;;;;;;7.82;4.70;;;-7.30;88.50;;;;;;4997037;28;20080;-85
2021/12/27 09:36:38;;;;;;;12.13;5.78;;;-7.30;88.40;;;;;;5010417;28;20034;-86
2021/12/27 09:39:05;;;;;;;11.73;6.28;;;-7.40;87.30;;;;;;4997768;28;20046;-85
2021/12/27 09:41:31;;;;;;;12.40;5.88;;;-7.50;86.60;;;;;;5000877;28;20022;-85
2021/12/27 09:43:57;;;;;;;9.05;6.22;;;-7.60;86.70;;;;;;5000126;28;20150;-84
2021/12/27 09:46:23;;;;;;;11.20;5.25;;;-7.80;87.30;;;;;;4999855;28;20026;-85
2021/12/27 09:48:51;;;;;;;7.78;5.00;;;-7.90;87.50;;;;;;4999838;28;20399;-86
2021/12/27 09:51:17;;;;;;;8.18;5.10;;;-8.00;87.90;;;;;;4997825;28;20034;-84
2021/12/27 09:53:43;;;;;;;9.07;6.97;;;-8.20;88.20;;;;;;5001125;28;20026;-85
2021/12/27 09:56:11;;;;;;;7.68;5.07;;;-8.20;88.20;;;;;;4998099;28;20134;-85
2021/12/27 09:58:39;;;;;;;9.15;5.13;;;-8.30;88.70;;;;;;4999109;28;20037;-85
2021/12/27 10:01:06;;;;;;;9.35;6.28;;;-8.40;89.50;;;;;;5012778;28;20125;-85
2021/12/27 10:03:53;;;;;;;10.52;6.13;;;-8.40;90.10;;;;;;4998294;28;20022;-85
2021/12/27 10:06:21;;;;;;;8.95;7.03;;;-8.50;90.40;;;;;;5000580;28;20037;-86
2021/12/27 10:08:52;;;;;;;7.97;6.50;;;-8.30;91.20;;;;;;5001390;28;20037;-84
2021/12/27 10:11:24;;;;;;;8.75;5.82;;;-7.90;91.60;;;;;;5011449;28;20030;-85
2021/12/27 10:14:18;;;;;;;13.63;7.57;;;-7.40;91.90;;;;;;4997954;28;20050;-84
2021/12/27 10:16:48;;;;;;;16.85;8.98;;;-6.80;91.20;;;;;;4998334;28;20040;-84
2021/12/27 10:19:16;;;;;;;17.42;9.02;;;-6.30;91.10;;;;;;5000574;28;20472;-86
2021/12/27 10:21:43;;;;;;;19.42;12.35;;;-5.80;91.00;;;;;;5014526;28;20025;-86
2021/12/27 10:24:14;;;;;;;;;;;-5.30;90.00;;;;;;5004329;28;20383;-87
2021/12/27 10:26:42;;;;;;;17.70;9.70;;;-4.80;89.80;;;;;;4996845;28;19913;-83
2021/12/27 10:29:19;;;;;;;13.85;10.05;;;-4.30;88.20;;;;;;4995773;28;20053;-84
2021/12/27 10:31:53;;;;;;;25.10;12.82;;;-4.00;84.40;;;;;;4995641;28;20026;-83
2021/12/27 10:34:20;;;;;;;17.00;8.55;;;-4.10;81.90;;;;;;4997161;28;20027;-86
2021/12/27 10:37:02;;;;;;;16.73;9.13;;;-4.40;81.40;;;;;;4998181;28;20134;-85
2021/12/27 10:39:55;;;;;;;13.55;8.55;;;-4.80;80.40;;;;;;5000798;28;20022;-85
2021/12/27 10:42:30;;;;;;;8.00;5.05;;;-5.20;81.20;;;;;;5000712;28;20038;-86
2021/12/27 10:45:02;;;;;;;27.75;12.10;;;-5.60;82.60;;;;;;4997838;28;20030;-85
2021/12/27 10:47:35;;;;;;;17.30;9.18;;;-6.00;83.20;;;;;;4996982;28;20553;-85
2021/12/27 10:50:24;;;;;;;9.73;6.65;;;-6.20;82.80;;;;;;4997340;28;20026;-86
2021/12/27 10:52:56;;;;;;;12.48;6.97;;;-6.50;82.40;;;;;;5002725;28;20133;-86
2021/12/27 10:55:27;;;;;;;12.82;7.53;;;-6.70;82.30;;;;;;4996444;28;20391;-85
2021/12/27 10:58:12;;;;;;;11.57;6.00;;;-6.90;82.70;;;;;;4995347;28;20022;-84
2021/12/27 11:00:39;;;;;;;10.88;4.95;;;-7.10;83.40;;;;;;4997265;28;20018;-84
2021/12/27 11:03:05;;;;;;;7.68;4.70;;;-7.20;84.60;;;;;;4996797;28;20037;-84
2021/12/27 11:05:35;;;;;;;13.35;7.07;;;-7.30;85.40;;;;;;4996595;28;20050;-84
2021/12/27 11:08:05;;;;;;;10.93;6.97;;;-7.50;86.20;;;;;;4996287;28;20388;-85
2021/12/27 11:10:35;;;;;;;14.85;7.75;;;-7.50;86.90;;;;;;4997735;28;20081;-88
2021/12/27 11:13:04;;;;;;;16.20;8.00;;;-7.60;86.90;;;;;;5006424;28;20081;-85
2021/12/27 11:15:32;;;;;;;16.08;8.43;;;-7.70;86.80;;;;;;5013156;28;20037;-84
2021/12/27 11:17:59;;;;;;;14.75;8.70;;;-7.70;87.30;;;;;;4982563;28;20038;-86
2021/12/27 11:20:25;;;;;;;10.15;8.00;;;-7.70;87.10;;;;;;4977485;28;20027;-87
2021/12/27 11:22:55;;;;;;;25.38;15.15;;;-7.80;86.90;;;;;;4976453;28;20027;-86
2021/12/27 11:25:29;;;;;;;32.50;16.60;;;-7.80;87.20;;;;;;4975252;28;20436;-84
2021/12/27 11:27:56;;;;;;;25.85;12.82;;;-7.80;87.40;;;;;;4976155;28;20110;-84
2021/12/27 11:30:24;;;;;;;;;;;-7.90;87.70;;;;;;4975466;28;20448;-84
2021/12/27 11:33:14;;;;;;;15.05;8.48;;;-7.90;87.70;;;;;;4975444;28;19910;-85
2021/12/27 11:36:04;;;;;;;10.00;5.63;;;-7.90;87.80;;;;;;4977221;28;20031;-84
2021/12/27 11:38:37;;;;;;;7.57;5.20;;;-7.90;88.60;;;;;;4977181;28;20074;-83
2021/12/27 11:41:07;;;;;;;10.60;5.50;;;-7.90;89.60;;;;;;4976068;28;20027;-84
2021/12/27 11:43:49;;;;;;;9.40;5.93;;;-8.00;89.60;;;;;;4976725;28;20033;-84
2021/12/27 11:46:15;;;;;;;6.30;4.95;;;-8.00;89.20;;;;;;4977708;28;20031;-85
2021/12/27 11:48:57;;;;;;;9.13;4.97;;;-7.90;89.40;;;;;;4976990;28;20019;-84
2021/12/27 11:51:30;;;;;;;11.70;6.18;;;-7.90;90.00;;;;;;4975962;28;20019;-86
2021/12/27 11:53:57;;;;;;;8.05;4.78;;;-7.90;90.00;;;;;;4976700;28;20031;-84
2021/12/27 11:56:38;;;;;;;8.97;6.23;;;-7.80;90.00;;;;;;4975995;28;20074;-85
2021/12/27 11:59:22;;;;;;;7.15;4.78;;;-7.80;90.20;;;;;;4991436;28;20031;-87
2021/12/27 12:01:56;;;;;;;10.30;5.97;;;-7.80;90.30;;;;;;4977773;28;20089;-84
2021/12/27 12:04:49;;;;;;;8.93;5.18;;;-7.80;90.10;;;;;;4984733;28;20109;-84
2021/12/27 12:07:50;;;;;;;10.32;5.72;;;-7.80;90.10;;;;;;4975613;28;20397;-83
2021/12/27 12:10:18;;;;;;;12.27;6.80;;;-7.70;90.00;;;;;;5014391;28;20018;-87
2021/12/27 12:13:23;;;;;;;7.18;4.68;;;-7.70;90.10;;;;;;5020294;28;20041;-84
2021/12/27 12:16:14;;;;;;;10.05;5.95;;;-7.70;90.00;;;;;;5031306;28;20489;-84
2021/12/27 12:18:51;;;;;;;9.88;6.15;;;-7.70;90.00;;;;;;5022574;28;20037;-86
2021/12/27 12:21:31;;;;;;;9.15;5.68;;;-7.70;89.60;;;;;;5012693;28;20044;-84
2021/12/27 12:23:59;;;;;;;10.88;6.30;;;-7.60;89.60;;;;;;5014954;28;20447;-84
2021/12/27 12:26:25;;;;;;;9.85;6.07;;;-7.70;89.40;;;;;;5013701;28;20088;-86
2021/12/27 12:29:03;;;;;;;9.80;6.25;;;-7.60;89.80;;;;;;5012777;28;20025;-87
2021/12/27 12:31:32;;;;;;;10.10;6.03;;;-7.60;89.90;;;;;;4999097;28;20068;-87
2021/12/27 12:34:11;;;;;;;13.50;7.97;;;-7.60;89.80;;;;;;5014927;28;20037;-87
2021/12/27 12:36:52;;;;;;;8.00;4.35;;;-7.60;89.50;;;;;;5018570;28;20050;-86
2021/12/27 12:39:20;;;;;;;11.48;5.10;;;-7.60;89.60;;;;;;5014683;28;20156;-85
2021/12/27 12:41:48;;;;;;;11.25;6.10;;;-7.60;89.50;;;;;;5017400;28;20493;-85
2021/12/27 12:44:14;;;;;;;14.15;5.75;;;-7.70;89.60;;;;;;5001880;28;20174;-84
2021/12/27 12:46:45;;;;;;;7.88;4.68;;;-7.70;89.60;;;;;;4978039;28;20121;-86
2021/12/27 12:49:14;;;;;;;9.35;5.22;;;-7.70;89.50;;;;;;4975102;28;20038;-86
2021/12/27 12:51:52;;;;;;;11.85;6.40;;;-7.80;89.70;;;;;;4976709;28;20025;-86
2021/12/27 12:54:26;;;;;;;7.78;4.03;;;-7.80;90.00;;;;;;4974257;28;20086;-85